Time;durP1;ratioP1;P1;durP2;ratioP2;P2;SDS_P1;SDS_P2;PMS_P1;PMS_P2;Temp;Humidity;BMP_temperature;BMP_pressure;BME280_temperature;BME280_humidity;BME280_pressure;Samples;Min_cycle;Max_cycle;Signal;HPM_P1;HPM_P2
2023/12/14 00:00:49;;;;;;;0.80;0.80;;;;;;;;;;5078419;28;20200;-71
2023/12/14 00:03:15;;;;;;;1.00;1.00;;;;;;;;;;5075368;28;20269;-71
2023/12/14 00:05:42;;;;;;;0.93;0.93;;;;;;;;;;5075261;28;20223;-71
2023/12/14 00:08:09;;;;;;;2.95;1.00;;;;;;;;;;5082942;28;20212;-71
2023/12/14 00:10:36;;;;;;;0.95;0.90;;;;;;;;;;5081480;28;20261;-71
2023/12/14 00:13:04;;;;;;;1.75;1.10;;;;;;;;;;5077801;28;20677;-71
2023/12/14 00:15:30;;;;;;;1.30;1.30;;;;;;;;;;5077771;28;20656;-71
2023/12/14 00:17:56;;;;;;;1.20;1.20;;;;;;;;;;5073880;28;20212;-70
2023/12/14 00:20:23;;;;;;;2.17;1.30;;;;;;;;;;5077781;28;20286;-70
2023/12/14 00:22:49;;;;;;;1.88;1.15;;;;;;;;;;5081673;28;20220;-70
2023/12/14 00:25:16;;;;;;;1.58;1.30;;;;;;;;;;5082213;28;20215;-70
2023/12/14 00:27:43;;;;;;;1.30;1.20;;;;;;;;;;5091054;28;20257;-70
2023/12/14 00:30:10;;;;;;;1.15;1.15;;;;;;;;;;5083506;28;20207;-70
2023/12/14 00:32:36;;;;;;;2.70;1.25;;;;;;;;;;5083064;28;20270;-70
2023/12/14 00:35:02;;;;;;;3.05;1.13;;;;;;;;;;5086052;28;20223;-70
2023/12/14 00:37:28;;;;;;;1.15;1.15;;;;;;;;;;5083045;28;20195;-70
2023/12/14 00:39:55;;;;;;;1.33;1.30;;;;;;;;;;5080571;28;20199;-70
2023/12/14 00:42:22;;;;;;;1.23;1.10;;;;;;;;;;5076337;28;20239;-70
2023/12/14 00:44:49;;;;;;;1.40;1.40;;;;;;;;;;5085598;28;20272;-70
2023/12/14 00:47:15;;;;;;;1.40;1.40;;;;;;;;;;5078631;28;20207;-70
2023/12/14 00:49:41;;;;;;;1.65;1.35;;;;;;;;;;5086859;28;20199;-71
2023/12/14 00:52:07;;;;;;;1.27;1.20;;;;;;;;;;5083287;28;20200;-71
2023/12/14 00:54:34;;;;;;;1.20;1.20;;;;;;;;;;5083450;28;20196;-70
2023/12/14 00:57:00;;;;;;;1.65;1.65;;;;;;;;;;5083440;28;20274;-71
2023/12/14 00:59:27;;;;;;;1.60;1.60;;;;;;;;;;5086692;28;20196;-71
2023/12/14 01:01:54;;;;;;;1.55;1.55;;;;;;;;;;5088005;28;20212;-70
2023/12/14 01:04:20;;;;;;;1.30;1.30;;;;;;;;;;5083609;28;20249;-70
2023/12/14 01:06:46;;;;;;;1.30;1.30;;;;;;;;;;5084269;28;20220;-71
2023/12/14 01:09:12;;;;;;;1.80;1.70;;;;;;;;;;5087927;28;20590;-70
2023/12/14 01:11:38;;;;;;;1.50;1.50;;;;;;;;;;5086372;28;20660;-70
2023/12/14 01:14:05;;;;;;;2.08;1.45;;;;;;;;;;5074756;28;20680;-71
2023/12/14 01:16:32;;;;;;;1.88;1.58;;;;;;;;;;5086555;28;20618;-71
2023/12/14 01:18:59;;;;;;;1.50;1.50;;;;;;;;;;5087708;28;20571;-71
2023/12/14 01:21:25;;;;;;;1.80;1.67;;;;;;;;;;5084378;28;20203;-70
2023/12/14 01:23:52;;;;;;;1.70;1.70;;;;;;;;;;5082942;28;20211;-70
2023/12/14 01:26:18;;;;;;;1.85;1.75;;;;;;;;;;5083094;28;20314;-70
2023/12/14 01:28:45;;;;;;;1.67;1.50;;;;;;;;;;5082947;28;20286;-70
2023/12/14 01:31:11;;;;;;;1.85;1.85;;;;;;;;;;5082824;28;20204;-70
2023/12/14 01:33:38;;;;;;;1.70;1.70;;;;;;;;;;5085045;28;20250;-70
2023/12/14 01:36:05;;;;;;;2.25;1.95;;;;;;;;;;5087855;28;20220;-70
2023/12/14 01:38:31;;;;;;;2.00;1.90;;;;;;;;;;5084467;28;20253;-70
2023/12/14 01:40:59;;;;;;;1.85;1.75;;;;;;;;;;5082664;28;20656;-70
2023/12/14 01:43:25;;;;;;;2.03;1.92;;;;;;;;;;5082597;28;20222;-70
2023/12/14 01:45:51;;;;;;;2.00;1.90;;;;;;;;;;5083459;28;20224;-69
2023/12/14 01:48:17;;;;;;;1.85;1.85;;;;;;;;;;5082187;28;20245;-70
2023/12/14 01:50:45;;;;;;;2.17;2.10;;;;;;;;;;5084915;28;20255;-70
2023/12/14 01:53:11;;;;;;;2.30;2.20;;;;;;;;;;5087896;28;20204;-70
2023/12/14 01:55:38;;;;;;;3.80;1.90;;;;;;;;;;5085408;28;20224;-70
2023/12/14 01:58:04;;;;;;;2.30;2.20;;;;;;;;;;5082709;28;20204;-70
2023/12/14 02:00:36;;;;;;;2.22;2.13;;;;;;;;;;5082427;28;20211;-70
2023/12/14 02:03:03;;;;;;;2.00;1.98;;;;;;;;;;5082714;28;20220;-70
2023/12/14 02:05:30;;;;;;;2.40;2.30;;;;;;;;;;5086773;28;20216;-70
2023/12/14 02:07:58;;;;;;;2.10;2.10;;;;;;;;;;5082530;28;20196;-69
2023/12/14 02:10:24;;;;;;;2.40;2.30;;;;;;;;;;5086552;28;20200;-69
2023/12/14 02:12:50;;;;;;;2.20;2.20;;;;;;;;;;5086014;28;20633;-70
2023/12/14 02:15:17;;;;;;;2.42;2.33;;;;;;;;;;5085995;28;20641;-70
2023/12/14 02:17:43;;;;;;;2.50;2.33;;;;;;;;;;5094842;28;20257;-70
2023/12/14 02:20:10;;;;;;;2.22;2.22;;;;;;;;;;5086235;28;20203;-70
2023/12/14 02:22:50;;;;;;;2.70;2.60;;;;;;;;;;5086109;28;20261;-70
2023/12/14 02:25:16;;;;;;;2.53;2.33;;;;;;;;;;5086060;28;20219;-70
2023/12/14 02:27:42;;;;;;;2.45;2.30;;;;;;;;;;5088310;28;20246;-69
2023/12/14 02:30:09;;;;;;;3.53;2.92;;;;;;;;;;5090819;28;20211;-70
2023/12/14 02:32:35;;;;;;;2.92;2.83;;;;;;;;;;5087473;28;20188;-69
2023/12/14 02:35:02;;;;;;;2.88;2.60;;;;;;;;;;5085921;28;20272;-70
2023/12/14 02:37:28;;;;;;;2.65;2.25;;;;;;;;;;5085942;28;20274;-70
2023/12/14 02:39:56;;;;;;;2.88;2.80;;;;;;;;;;5086596;28;20269;-70
2023/12/14 02:42:22;;;;;;;2.63;2.53;;;;;;;;;;5090018;28;20265;-71
2023/12/14 02:44:49;;;;;;;3.10;2.85;;;;;;;;;;5089002;28;20273;-70
2023/12/14 02:47:15;;;;;;;2.78;2.58;;;;;;;;;;5085698;28;20249;-70
2023/12/14 02:49:41;;;;;;;2.63;2.53;;;;;;;;;;5085758;28;20269;-70
2023/12/14 02:52:08;;;;;;;2.80;2.60;;;;;;;;;;5085281;28;20661;-69
2023/12/14 02:54:34;;;;;;;2.85;2.75;;;;;;;;;;5089638;28;20242;-70
2023/12/14 02:57:01;;;;;;;2.90;2.80;;;;;;;;;;5090211;28;20206;-70
2023/12/14 02:59:28;;;;;;;3.05;2.95;;;;;;;;;;5085299;28;20196;-70
2023/12/14 03:01:54;;;;;;;3.00;2.90;;;;;;;;;;5086471;28;20200;-70
2023/12/14 03:04:20;;;;;;;3.17;3.08;;;;;;;;;;5090172;28;20223;-71
2023/12/14 03:06:46;;;;;;;3.22;2.58;;;;;;;;;;5088133;28;20220;-71
2023/12/14 03:09:13;;;;;;;3.25;3.08;;;;;;;;;;5084918;28;20208;-71
2023/12/14 03:11:39;;;;;;;2.78;2.67;;;;;;;;;;5085101;28;20605;-71
2023/12/14 03:14:07;;;;;;;3.47;3.22;;;;;;;;;;5085174;28;20622;-71
2023/12/14 03:16:35;;;;;;;3.22;3.05;;;;;;;;;;5091533;28;20270;-71
2023/12/14 03:19:01;;;;;;;2.80;2.70;;;;;;;;;;5091390;28;20572;-71
2023/12/14 03:21:28;;;;;;;3.30;3.10;;;;;;;;;;5083607;28;20200;-71
2023/12/14 03:23:54;;;;;;;3.40;3.15;;;;;;;;;;5087994;28;20216;-71
2023/12/14 03:26:20;;;;;;;2.90;2.80;;;;;;;;;;5084503;28;20223;-71
2023/12/14 03:28:46;;;;;;;3.55;3.35;;;;;;;;;;5084836;28;20230;-71
2023/12/14 03:31:14;;;;;;;3.20;3.10;;;;;;;;;;5084791;28;20335;-71
2023/12/14 03:33:40;;;;;;;3.33;3.13;;;;;;;;;;5087940;28;20661;-70
2023/12/14 03:36:07;;;;;;;3.67;3.53;;;;;;;;;;5089576;28;20219;-70
2023/12/14 03:38:34;;;;;;;3.35;3.13;;;;;;;;;;5085029;28;20196;-70
2023/12/14 03:41:00;;;;;;;3.10;3.00;;;;;;;;;;5084658;28;20196;-70
2023/12/14 03:43:27;;;;;;;3.20;3.10;;;;;;;;;;5084158;28;20580;-70
2023/12/14 03:45:53;;;;;;;3.42;3.28;;;;;;;;;;5086154;28;20227;-70
2023/12/14 03:48:21;;;;;;;3.50;3.30;;;;;;;;;;5089408;28;20215;-70
2023/12/14 03:50:47;;;;;;;3.80;3.58;;;;;;;;;;5086464;28;20249;-70
2023/12/14 03:53:13;;;;;;;3.58;3.40;;;;;;;;;;5084121;28;20199;-70
2023/12/14 03:55:39;;;;;;;3.83;3.50;;;;;;;;;;5084392;28;20219;-70
2023/12/14 03:58:06;;;;;;;3.92;3.72;;;;;;;;;;5084681;28;20267;-70
2023/12/14 04:00:32;;;;;;;3.80;3.60;;;;;;;;;;5084132;28;20445;-70
2023/12/14 04:02:58;;;;;;;4.28;3.90;;;;;;;;;;5085351;28;20224;-70
2023/12/14 04:05:26;;;;;;;4.22;3.63;;;;;;;;;;5088937;28;20216;-70
2023/12/14 04:07:52;;;;;;;4.30;4.03;;;;;;;;;;5086587;28;20199;-70
2023/12/14 04:10:18;;;;;;;3.80;3.67;;;;;;;;;;5084009;28;20200;-70
2023/12/14 04:12:44;;;;;;;3.80;3.67;;;;;;;;;;5084114;28;20200;-70
2023/12/14 04:15:11;;;;;;;4.45;4.25;;;;;;;;;;5083900;28;20224;-70
2023/12/14 04:17:37;;;;;;;4.13;3.83;;;;;;;;;;5088509;28;20607;-70
2023/12/14 04:20:05;;;;;;;5.25;4.40;;;;;;;;;;5087824;28;20261;-70
2023/12/14 04:22:33;;;;;;;5.05;4.65;;;;;;;;;;5083781;28;20219;-70
2023/12/14 04:24:59;;;;;;;4.65;4.35;;;;;;;;;;5083742;28;20219;-70
2023/12/14 04:27:28;;;;;;;4.78;4.30;;;;;;;;;;5083436;28;20257;-70
2023/12/14 04:29:54;;;;;;;4.63;4.40;;;;;;;;;;5085400;28;20196;-70
2023/12/14 04:32:21;;;;;;;4.75;4.30;;;;;;;;;;5088391;28;20253;-70
2023/12/14 04:34:47;;;;;;;4.63;4.32;;;;;;;;;;5085216;28;20211;-70
2023/12/14 04:37:13;;;;;;;5.10;4.68;;;;;;;;;;5083810;28;20228;-70
2023/12/14 04:39:41;;;;;;;4.88;4.50;;;;;;;;;;5083473;28;20195;-70
2023/12/14 04:42:07;;;;;;;5.13;4.60;;;;;;;;;;5083951;28;20208;-70
2023/12/14 04:44:33;;;;;;;5.30;4.80;;;;;;;;;;5082638;28;20212;-70
2023/12/14 04:47:00;;;;;;;5.22;4.93;;;;;;;;;;5085257;28;20672;-70
2023/12/14 04:49:26;;;;;;;5.80;4.82;;;;;;;;;;5088195;28;20196;-70
2023/12/14 04:51:52;;;;;;;5.10;4.78;;;;;;;;;;5085453;28;20200;-70
2023/12/14 04:54:18;;;;;;;5.38;5.07;;;;;;;;;;5083412;28;20225;-70
2023/12/14 04:56:47;;;;;;;5.53;5.05;;;;;;;;;;5083288;28;20273;-70
2023/12/14 04:59:13;;;;;;;5.50;5.20;;;;;;;;;;5083153;28;20708;-70
2023/12/14 05:01:39;;;;;;;5.38;4.97;;;;;;;;;;5079774;28;20614;-70
2023/12/14 05:04:06;;;;;;;5.63;5.03;;;;;;;;;;5086790;28;20642;-70
2023/12/14 05:06:33;;;;;;;5.85;5.35;;;;;;;;;;5083498;28;20332;-70
2023/12/14 05:09:01;;;;;;;5.45;5.05;;;;;;;;;;5083213;28;20209;-70
2023/12/14 05:11:28;;;;;;;5.30;4.90;;;;;;;;;;5083056;28;20633;-70
2023/12/14 05:13:55;;;;;;;6.30;5.63;;;;;;;;;;5085683;28;20586;-70
2023/12/14 05:16:22;;;;;;;6.00;5.50;;;;;;;;;;5087847;28;20224;-70
2023/12/14 05:18:49;;;;;;;6.47;5.85;;;;;;;;;;5084305;28;20195;-70
2023/12/14 05:21:17;;;;;;;6.22;5.72;;;;;;;;;;5083393;28;20200;-70
2023/12/14 05:23:43;;;;;;;6.63;5.82;;;;;;;;;;5079578;28;20262;-70
2023/12/14 05:26:09;;;;;;;6.00;5.50;;;;;;;;;;5087048;28;20223;-70
2023/12/14 05:28:35;;;;;;;6.25;5.65;;;;;;;;;;5082889;28;20199;-70
2023/12/14 05:31:03;;;;;;;6.38;5.75;;;;;;;;;;5082895;28;20287;-70
2023/12/14 05:33:31;;;;;;;6.18;5.78;;;;;;;;;;5082846;28;20204;-70
2023/12/14 05:35:57;;;;;;;6.47;5.93;;;;;;;;;;5086121;28;20365;-70
2023/12/14 05:38:24;;;;;;;6.70;6.18;;;;;;;;;;5087961;28;20245;-70
2023/12/14 05:40:50;;;;;;;7.45;6.65;;;;;;;;;;5084518;28;20196;-70
2023/12/14 05:43:16;;;;;;;6.95;6.28;;;;;;;;;;5086685;28;20200;-70
2023/12/14 05:45:42;;;;;;;7.60;6.50;;;;;;;;;;5083448;28;20216;-70
2023/12/14 05:48:10;;;;;;;6.88;6.28;;;;;;;;;;5090552;28;20200;-70
2023/12/14 05:50:36;;;;;;;7.15;6.55;;;;;;;;;;5086779;28;20222;-70
2023/12/14 05:53:03;;;;;;;7.50;6.88;;;;;;;;;;5086598;28;20291;-70
2023/12/14 05:55:29;;;;;;;7.35;6.18;;;;;;;;;;5086180;28;20227;-70
2023/12/14 05:57:56;;;;;;;7.55;6.85;;;;;;;;;;5089598;28;20200;-70
2023/12/14 06:00:22;;;;;;;8.90;7.50;;;;;;;;;;5089414;28;20713;-70
2023/12/14 06:02:49;;;;;;;13.93;7.80;;;;;;;;;;5083325;28;20206;-70
2023/12/14 06:05:17;;;;;;;8.48;7.63;;;;;;;;;;5082677;28;20759;-70
2023/12/14 06:07:43;;;;;;;6.78;6.28;;;;;;;;;;5082395;28;20248;-70
2023/12/14 06:10:10;;;;;;;7.30;6.60;;;;;;;;;;5084396;28;20204;-70
2023/12/14 06:12:36;;;;;;;7.45;6.75;;;;;;;;;;5087642;28;20298;-70
2023/12/14 06:15:03;;;;;;;7.95;7.25;;;;;;;;;;5086046;28;20281;-70
2023/12/14 06:17:29;;;;;;;7.63;7.10;;;;;;;;;;5086634;28;20204;-71
2023/12/14 06:19:55;;;;;;;7.95;7.35;;;;;;;;;;5090012;28;20205;-71
2023/12/14 06:22:23;;;;;;;8.23;7.43;;;;;;;;;;5091221;28;20200;-71
2023/12/14 06:24:49;;;;;;;11.15;7.75;;;;;;;;;;5088449;28;20260;-71
2023/12/14 06:27:15;;;;;;;8.95;8.13;;;;;;;;;;5087862;28;20210;-70
2023/12/14 06:29:42;;;;;;;9.13;8.23;;;;;;;;;;5087952;28;20226;-70
2023/12/14 06:32:08;;;;;;;9.57;8.27;;;;;;;;;;5089662;28;20554;-70
2023/12/14 06:34:34;;;;;;;9.57;8.68;;;;;;;;;;5091806;28;20660;-70
2023/12/14 06:37:02;;;;;;;9.25;8.30;;;;;;;;;;5087551;28;20624;-70
2023/12/14 06:39:30;;;;;;;8.98;8.18;;;;;;;;;;5085587;28;20228;-70
2023/12/14 06:41:56;;;;;;;9.68;8.82;;;;;;;;;;5085491;28;20245;-70
2023/12/14 06:44:22;;;;;;;10.10;8.93;;;;;;;;;;5085633;28;20266;-70
2023/12/14 06:46:49;;;;;;;9.13;8.32;;;;;;;;;;5085890;28;20249;-63
2023/12/14 06:49:15;;;;;;;9.90;9.00;;;;;;;;;;5085500;28;20253;-63
2023/12/14 06:51:41;;;;;;;10.13;8.95;;;;;;;;;;5085018;28;20216;-63
2023/12/14 06:54:07;;;;;;;9.93;8.93;;;;;;;;;;5087494;28;20205;-63
2023/12/14 06:56:36;;;;;;;9.07;8.20;;;;;;;;;;5090537;28;20257;-63
2023/12/14 06:59:03;;;;;;;9.70;8.82;;;;;;;;;;5087373;28;20269;-63
2023/12/14 07:01:29;;;;;;;10.05;8.93;;;;;;;;;;5085345;28;20273;-63
2023/12/14 07:03:55;;;;;;;10.15;9.10;;;;;;;;;;5089210;28;20217;-63
2023/12/14 07:06:21;;;;;;;10.98;9.00;;;;;;;;;;5089482;28;20220;-63
2023/12/14 07:08:48;;;;;;;9.73;8.73;;;;;;;;;;5082224;28;20287;-62
2023/12/14 07:11:14;;;;;;;12.02;8.85;;;;;;;;;;5081806;28;20283;-62
2023/12/14 07:13:42;;;;;;;8.80;7.95;;;;;;;;;;5090047;28;20200;-62
2023/12/14 07:16:09;;;;;;;9.13;8.00;;;;;;;;;;5087250;28;20227;-63
2023/12/14 07:18:35;;;;;;;8.88;8.18;;;;;;;;;;5085048;28;20208;-63
2023/12/14 07:21:02;;;;;;;8.75;7.95;;;;;;;;;;5084782;28;20326;-63
2023/12/14 07:23:28;;;;;;;7.78;6.97;;;;;;;;;;5084408;28;20295;-63
2023/12/14 07:25:54;;;;;;;7.78;7.13;;;;;;;;;;5089311;28;20232;-63
2023/12/14 07:28:21;;;;;;;8.10;7.40;;;;;;;;;;5088770;28;20623;-63
2023/12/14 07:30:49;;;;;;;8.00;7.40;;;;;;;;;;5084469;28;20199;-63
2023/12/14 07:33:15;;;;;;;7.95;7.05;;;;;;;;;;5084351;28;20253;-63
2023/12/14 07:35:42;;;;;;;7.75;7.13;;;;;;;;;;5084091;28;20629;-63
2023/12/14 07:38:08;;;;;;;8.00;7.40;;;;;;;;;;5087205;28;20580;-63
2023/12/14 07:40:34;;;;;;;8.60;7.60;;;;;;;;;;5089234;28;20204;-63
2023/12/14 07:43:01;;;;;;;9.98;7.40;;;;;;;;;;5085328;28;20200;-63
2023/12/14 07:45:27;;;;;;;9.25;8.45;;;;;;;;;;5084224;28;20274;-63
2023/12/14 07:47:54;;;;;;;8.70;7.85;;;;;;;;;;5084221;28;20316;-63
2023/12/14 07:50:21;;;;;;;8.73;8.00;;;;;;;;;;5085364;28;20246;-63
2023/12/14 07:52:47;;;;;;;9.52;8.52;;;;;;;;;;5088792;28;20253;-63
2023/12/14 07:55:14;;;;;;;8.30;7.63;;;;;;;;;;5086832;28;20353;-63
2023/12/14 07:57:40;;;;;;;8.52;7.88;;;;;;;;;;5084282;28;20204;-62
2023/12/14 08:00:08;;;;;;;10.00;7.60;;;;;;;;;;5084099;28;20287;-62
2023/12/14 08:02:34;;;;;;;9.13;8.27;;;;;;;;;;5083774;28;20228;-62
2023/12/14 08:05:02;;;;;;;9.65;8.45;;;;;;;;;;5087204;28;20225;-63
2023/12/14 08:07:29;;;;;;;13.07;8.65;;;;;;;;;;5088240;28;20688;-62
2023/12/14 08:09:55;;;;;;;10.18;8.07;;;;;;;;;;5075283;28;20652;-63
2023/12/14 08:12:22;;;;;;;9.45;8.38;;;;;;;;;;5083626;28;20204;-62
2023/12/14 08:14:48;;;;;;;10.18;8.43;;;;;;;;;;5083571;28;20251;-63
2023/12/14 08:17:14;;;;;;;8.73;8.00;;;;;;;;;;5086174;28;20231;-63
2023/12/14 08:19:40;;;;;;;9.95;7.95;;;;;;;;;;5088305;28;20200;-63
2023/12/14 08:22:10;;;;;;;8.80;8.00;;;;;;;;;;5083364;28;20200;-63
2023/12/14 08:24:37;;;;;;;8.70;8.00;;;;;;;;;;5080003;28;20247;-63
2023/12/14 08:27:03;;;;;;;9.13;8.07;;;;;;;;;;5084347;28;20219;-63
2023/12/14 08:29:29;;;;;;;8.93;8.20;;;;;;;;;;5083497;28;20199;-63
2023/12/14 08:31:57;;;;;;;9.45;8.57;;;;;;;;;;5083205;28;20196;-64
2023/12/14 08:34:23;;;;;;;8.35;7.55;;;;;;;;;;5084738;28;20196;-63
2023/12/14 08:36:49;;;;;;;10.48;7.55;;;;;;;;;;5088404;28;20199;-63
2023/12/14 08:39:17;;;;;;;10.55;7.80;;;;;;;;;;5085712;28;20200;-63
2023/12/14 08:41:44;;;;;;;8.40;7.57;;;;;;;;;;5083343;28;20280;-63
2023/12/14 08:44:11;;;;;;;9.18;7.88;;;;;;;;;;5083188;28;20667;-63
2023/12/14 08:46:40;;;;;;;9.25;8.07;;;;;;;;;;5083211;28;20228;-63
2023/12/14 08:49:06;;;;;;;7.50;6.80;;;;;;;;;;5087068;28;20287;-63
2023/12/14 08:51:32;;;;;;;12.27;7.38;;;;;;;;;;5087983;28;20253;-62
2023/12/14 08:53:58;;;;;;;10.50;6.78;;;;;;;;;;5083225;28;20206;-63
2023/12/14 08:56:26;;;;;;;9.65;7.25;;;;;;;;;;5084868;28;20224;-63
2023/12/14 08:58:53;;;;;;;9.88;7.22;;;;;;;;;;5087987;28;20253;-62
2023/12/14 09:01:20;;;;;;;10.63;8.43;;;;;;;;;;5085450;28;20282;-63
2023/12/14 09:03:46;;;;;;;15.15;7.45;;;;;;;;;;5082741;28;20208;-62
2023/12/14 09:06:12;;;;;;;12.23;7.50;;;;;;;;;;5082930;28;20780;-62
2023/12/14 09:08:39;;;;;;;11.35;7.80;;;;;;;;;;5083071;28;20200;-64
2023/12/14 09:11:06;;;;;;;9.85;7.45;;;;;;;;;;5087537;28;20200;-63
2023/12/14 09:13:33;;;;;;;9.73;7.53;;;;;;;;;;5087141;28;20204;-63
2023/12/14 09:15:59;;;;;;;7.95;7.13;;;;;;;;;;5084948;28;20269;-63
2023/12/14 09:18:26;;;;;;;8.32;7.47;;;;;;;;;;5087193;28;20207;-62
2023/12/14 09:20:52;;;;;;;10.70;7.28;;;;;;;;;;5086876;28;20208;-62
2023/12/14 09:23:18;;;;;;;7.60;6.53;;;;;;;;;;5089652;28;20200;-63
2023/12/14 09:25:45;;;;;;;7.90;6.88;;;;;;;;;;5091610;28;20282;-62
2023/12/14 09:28:11;;;;;;;10.02;7.13;;;;;;;;;;5083590;28;20206;-62
2023/12/14 09:30:39;;;;;;;8.00;6.70;;;;;;;;;;5091376;28;20559;-62
2023/12/14 09:33:05;;;;;;;11.90;6.45;;;;;;;;;;5083075;28;20610;-63
2023/12/14 09:35:32;;;;;;;8.80;6.90;;;;;;;;;;5090670;28;20642;-63
2023/12/14 09:37:58;;;;;;;7.50;6.07;;;;;;;;;;5086798;28;20560;-62
2023/12/14 09:40:24;;;;;;;6.93;6.22;;;;;;;;;;5086529;28;20664;-62
2023/12/14 09:42:50;;;;;;;8.50;6.07;;;;;;;;;;5086237;28;20620;-62
2023/12/14 09:45:17;;;;;;;6.50;5.65;;;;;;;;;;5088967;28;20626;-62
2023/12/14 09:47:45;;;;;;;5.78;5.20;;;;;;;;;;5090957;28;20237;-63
2023/12/14 09:50:14;;;;;;;6.40;5.90;;;;;;;;;;5086835;28;20219;-63
2023/12/14 09:52:44;;;;;;;6.13;5.63;;;;;;;;;;5085948;28;20200;-63
2023/12/14 09:55:11;;;;;;;7.13;5.70;;;;;;;;;;5082506;28;20208;-63
2023/12/14 09:57:37;;;;;;;5.65;5.18;;;;;;;;;;5090253;28;20192;-63
2023/12/14 10:00:05;;;;;;;5.68;5.18;;;;;;;;;;5083244;28;20661;-63
2023/12/14 10:02:31;;;;;;;8.90;5.82;;;;;;;;;;5087796;28;20192;-63
2023/12/14 10:04:59;;;;;;;5.85;4.85;;;;;;;;;;5083934;28;20227;-63
2023/12/14 10:07:25;;;;;;;6.53;5.18;;;;;;;;;;5084038;28;20199;-63
2023/12/14 10:09:52;;;;;;;6.60;4.57;;;;;;;;;;5084064;28;20222;-63
2023/12/14 10:12:19;;;;;;;4.88;4.43;;;;;;;;;;5087373;28;20192;-64
2023/12/14 10:14:46;;;;;;;4.90;4.60;;;;;;;;;;5088915;28;20215;-61
2023/12/14 10:17:16;;;;;;;5.43;5.03;;;;;;;;;;5086284;28;20265;-62
2023/12/14 10:19:43;;;;;;;6.15;5.25;;;;;;;;;;5085934;28;20639;-60
2023/12/14 10:22:10;;;;;;;5.45;4.93;;;;;;;;;;5090905;28;20197;-60
2023/12/14 10:24:37;;;;;;;5.50;5.07;;;;;;;;;;5089769;28;20196;-60
2023/12/14 10:27:07;;;;;;;9.88;4.72;;;;;;;;;;5085114;28;20200;-60
2023/12/14 10:29:33;;;;;;;5.38;4.80;;;;;;;;;;5086231;28;20200;-60
2023/12/14 10:32:00;;;;;;;5.80;5.03;;;;;;;;;;5085862;28;20204;-61
2023/12/14 10:34:26;;;;;;;6.05;5.47;;;;;;;;;;5088216;28;20629;-60
2023/12/14 10:36:52;;;;;;;9.00;6.10;;;;;;;;;;5090557;28;20192;-60
2023/12/14 10:39:20;;;;;;;66.80;11.18;;;;;;;;;;5086705;28;20207;-60
2023/12/14 10:41:48;;;;;;;11.55;6.03;;;;;;;;;;5085499;28;20286;-60
2023/12/14 10:44:14;;;;;;;7.68;5.53;;;;;;;;;;5085398;28;20660;-60
2023/12/14 10:46:42;;;;;;;7.43;5.85;;;;;;;;;;5086187;28;20216;-60
2023/12/14 10:49:08;;;;;;;15.18;6.85;;;;;;;;;;5090205;28;20199;-60
2023/12/14 10:51:35;;;;;;;6.95;5.25;;;;;;;;;;5088590;28;20203;-60
2023/12/14 10:54:01;;;;;;;6.55;5.93;;;;;;;;;;5084969;28;20251;-61
2023/12/14 10:56:29;;;;;;;7.35;6.47;;;;;;;;;;5085402;28;20281;-60
2023/12/14 10:58:57;;;;;;;8.80;6.82;;;;;;;;;;5084960;28;20548;-59
2023/12/14 11:01:24;;;;;;;7.13;6.28;;;;;;;;;;5088469;28;20255;-62
2023/12/14 11:03:51;;;;;;;8.35;6.88;;;;;;;;;;5089733;28;20286;-60
2023/12/14 11:06:22;;;;;;;7.75;6.85;;;;;;;;;;5085548;28;20223;-61
2023/12/14 11:08:48;;;;;;;8.13;6.95;;;;;;;;;;5085030;28;20230;-60
2023/12/14 11:11:20;;;;;;;9.38;6.60;;;;;;;;;;5085138;28;20204;-61
2023/12/14 11:13:49;;;;;;;7.45;6.75;;;;;;;;;;5085008;28;20643;-61
2023/12/14 11:16:16;;;;;;;9.50;7.10;;;;;;;;;;5081401;28;20213;-61
2023/12/14 11:18:42;;;;;;;8.80;7.85;;;;;;;;;;5088679;28;20284;-61
2023/12/14 11:21:09;;;;;;;8.70;7.82;;;;;;;;;;5084657;28;20257;-61
2023/12/14 11:23:36;;;;;;;7.20;6.50;;;;;;;;;;5084675;28;20204;-61
2023/12/14 11:26:04;;;;;;;7.68;6.50;;;;;;;;;;5084476;28;20258;-60
2023/12/14 11:28:30;;;;;;;8.07;7.32;;;;;;;;;;5084421;28;20199;-60
2023/12/14 11:30:58;;;;;;;7.90;7.07;;;;;;;;;;5084620;28;20269;-60
2023/12/14 11:33:24;;;;;;;13.43;7.75;;;;;;;;;;5087968;28;20238;-60
2023/12/14 11:35:51;;;;;;;8.85;7.15;;;;;;;;;;5085193;28;20277;-59
2023/12/14 11:38:18;;;;;;;8.38;7.53;;;;;;;;;;5085381;28;20566;-59
2023/12/14 11:40:44;;;;;;;9.15;7.15;;;;;;;;;;5078181;28;20243;-60
2023/12/14 11:43:11;;;;;;;9.40;8.40;;;;;;;;;;5069116;28;20212;-60
2023/12/14 11:45:37;;;;;;;8.85;7.88;;;;;;;;;;5075009;28;20263;-60
2023/12/14 11:48:05;;;;;;;9.20;8.23;;;;;;;;;;5076218;28;20208;-60
2023/12/14 11:50:32;;;;;;;9.10;7.85;;;;;;;;;;5078366;28;20199;-60
2023/12/14 11:52:58;;;;;;;10.35;7.50;;;;;;;;;;5077483;28;20204;-60
2023/12/14 11:55:24;;;;;;;9.18;7.18;;;;;;;;;;5067075;28;20255;-60
2023/12/14 11:57:51;;;;;;;8.50;7.53;;;;;;;;;;5075141;28;20270;-60
2023/12/14 12:00:17;;;;;;;9.35;7.55;;;;;;;;;;5083185;28;20588;-60
2023/12/14 12:02:44;;;;;;;8.73;7.85;;;;;;;;;;5074606;28;20262;-60
2023/12/14 12:05:13;;;;;;;8.40;7.60;;;;;;;;;;5076924;28;20301;-60
2023/12/14 12:07:43;;;;;;;10.15;6.72;;;;;;;;;;5078236;28;20206;-61
2023/12/14 12:10:10;;;;;;;14.65;6.40;;;;;;;;;;5075547;28;20298;-60
2023/12/14 12:12:36;;;;;;;7.00;5.85;;;;;;;;;;5080252;28;20204;-60
2023/12/14 12:15:03;;;;;;;7.20;5.40;;;;;;;;;;5076831;28;20227;-60
2023/12/14 12:17:29;;;;;;;5.85;5.28;;;;;;;;;;5074654;28;20216;-62
2023/12/14 12:19:55;;;;;;;9.57;5.35;;;;;;;;;;5074683;28;20228;-60
2023/12/14 12:22:23;;;;;;;5.78;5.28;;;;;;;;;;5077984;28;20207;-60
2023/12/14 12:24:49;;;;;;;8.65;5.50;;;;;;;;;;5077886;28;20704;-60
2023/12/14 12:27:15;;;;;;;352.63;26.48;;;;;;;;;;5075131;28;20224;-60
2023/12/14 12:29:42;;;;;;;10.30;5.55;;;;;;;;;;5074258;28;20238;-60
2023/12/14 12:32:08;;;;;;;6.63;4.95;;;;;;;;;;5077692;28;20234;-60
2023/12/14 12:34:34;;;;;;;9.65;5.47;;;;;;;;;;5074144;28;20273;-60
2023/12/14 12:37:01;;;;;;;10.10;5.50;;;;;;;;;;5074756;28;20621;-60
2023/12/14 12:39:29;;;;;;;5.05;3.90;;;;;;;;;;5077678;28;20762;-60
2023/12/14 12:41:55;;;;;;;6.65;4.00;;;;;;;;;;5077489;28;20219;-60
2023/12/14 12:44:21;;;;;;;8.00;3.35;;;;;;;;;;5077529;28;20203;-60
2023/12/14 12:46:47;;;;;;;5.05;3.28;;;;;;;;;;5077721;28;20219;-60
2023/12/14 12:49:14;;;;;;;5.47;2.90;;;;;;;;;;5077736;28;20215;-60
2023/12/14 12:51:40;;;;;;;2.40;2.20;;;;;;;;;;5077300;28;20204;-60
2023/12/14 12:54:06;;;;;;;2.95;2.40;;;;;;;;;;5076234;28;20211;-60
2023/12/14 12:56:34;;;;;;;2.10;2.00;;;;;;;;;;5074006;28;20216;-59
2023/12/14 12:59:00;;;;;;;264.40;23.13;;;;;;;;;;5074030;28;20208;-60
2023/12/14 13:01:27;;;;;;;6.38;3.00;;;;;;;;;;5077425;28;20210;-59
2023/12/14 13:03:54;;;;;;;4.38;2.72;;;;;;;;;;5077407;28;20234;-60
2023/12/14 13:06:20;;;;;;;2.88;2.65;;;;;;;;;;5074105;28;20354;-59
2023/12/14 13:08:47;;;;;;;3.63;2.53;;;;;;;;;;5073789;28;20726;-60
2023/12/14 13:11:13;;;;;;;2.85;2.25;;;;;;;;;;5075680;28;20250;-60
2023/12/14 13:13:43;;;;;;;5.25;2.30;;;;;;;;;;5077251;28;20203;-59
2023/12/14 13:16:10;;;;;;;2.13;2.03;;;;;;;;;;5075699;28;20219;-60
2023/12/14 13:18:36;;;;;;;2.00;1.90;;;;;;;;;;5073891;28;20215;-60
2023/12/14 13:21:02;;;;;;;3.22;1.92;;;;;;;;;;5074073;28;20261;-61
2023/12/14 13:23:28;;;;;;;2.22;1.60;;;;;;;;;;5073190;28;20629;-60
2023/12/14 13:25:54;;;;;;;2.22;1.90;;;;;;;;;;5073560;28;20224;-60
2023/12/14 13:28:21;;;;;;;2.45;2.10;;;;;;;;;;5081880;28;20656;-60
2023/12/14 13:30:48;;;;;;;2.72;2.13;;;;;;;;;;5073620;28;20565;-60
2023/12/14 13:33:14;;;;;;;3.08;2.25;;;;;;;;;;5075512;28;20777;-60
2023/12/14 13:35:41;;;;;;;2.63;2.10;;;;;;;;;;5077204;28;20272;-60
2023/12/14 13:38:07;;;;;;;2.20;2.10;;;;;;;;;;5076300;28;20207;-60
2023/12/14 13:40:33;;;;;;;1.90;1.80;;;;;;;;;;5073131;28;20676;-60
2023/12/14 13:43:03;;;;;;;2.30;2.10;;;;;;;;;;5073346;28;20677;-59
2023/12/14 13:45:30;;;;;;;1.45;1.40;;;;;;;;;;5073499;28;20251;-60
2023/12/14 13:47:58;;;;;;;1.80;1.67;;;;;;;;;;5073718;28;20232;-60
2023/12/14 13:50:26;;;;;;;2.20;2.10;;;;;;;;;;5076435;28;20204;-61
2023/12/14 13:52:52;;;;;;;2.20;2.10;;;;;;;;;;5076670;28;20253;-61
2023/12/14 13:55:18;;;;;;;1.98;1.88;;;;;;;;;;5074634;28;20228;-61
2023/12/14 13:57:45;;;;;;;2.58;2.38;;;;;;;;;;5073595;28;20231;-60
2023/12/14 14:00:12;;;;;;;2.22;2.13;;;;;;;;;;5083518;28;20290;-60
2023/12/14 14:02:38;;;;;;;2.95;2.42;;;;;;;;;;5082209;28;20204;-61
2023/12/14 14:05:06;;;;;;;2.40;2.30;;;;;;;;;;5082774;28;20233;-60
2023/12/14 14:07:32;;;;;;;1.92;1.80;;;;;;;;;;5074800;28;20264;-61
2023/12/14 14:09:58;;;;;;;2.05;1.80;;;;;;;;;;5088547;28;20212;-60
2023/12/14 14:12:25;;;;;;;2.05;1.80;;;;;;;;;;5079990;28;20265;-62
2023/12/14 14:14:51;;;;;;;2.22;2.10;;;;;;;;;;5079234;28;20224;-60
2023/12/14 14:17:17;;;;;;;2.47;2.17;;;;;;;;;;5079297;28;20204;-60
2023/12/14 14:19:43;;;;;;;2.08;1.70;;;;;;;;;;5079279;28;20204;-60
2023/12/14 14:22:11;;;;;;;1.88;1.73;;;;;;;;;;5081112;28;20660;-61
2023/12/14 14:24:37;;;;;;;2.28;2.15;;;;;;;;;;5078797;28;20205;-60
2023/12/14 14:27:04;;;;;;;2.10;1.92;;;;;;;;;;5078842;28;20224;-61
2023/12/14 14:29:30;;;;;;;2.05;1.73;;;;;;;;;;5078776;28;20542;-60
2023/12/14 14:31:56;;;;;;;2.30;2.10;;;;;;;;;;5079003;28;20613;-62
2023/12/14 14:34:23;;;;;;;1.98;1.88;;;;;;;;;;5080184;28;20261;-61
2023/12/14 14:36:49;;;;;;;2.72;2.55;;;;;;;;;;5070190;28;20292;-61